sensor_id;sensor_type;location;lat;lon;timestamp;pressure;altitude;pressure_sealevel;temperature;humidity
40908;BME280;51055;59.436;24.778;2022-09-09T00:02:03;102668.72;;;8.06;69.54
40908;BME280;51055;59.436;24.778;2022-09-09T00:04:34;102669.88;;;7.99;69.67
40908;BME280;51055;59.436;24.778;2022-09-09T00:12:55;102668.63;;;7.86;71.02
40908;BME280;51055;59.436;24.778;2022-09-09T00:16:17;102663.91;;;7.94;70.41
40908;BME280;51055;59.436;24.778;2022-09-09T00:22:32;102666.06;;;7.84;70.59
40908;BME280;51055;59.436;24.778;2022-09-09T00:27:17;102667.34;;;7.73;71.34
40908;BME280;51055;59.436;24.778;2022-09-09T00:29:56;102675.63;;;7.64;71.16
40908;BME280;51055;59.436;24.778;2022-09-09T00:32:28;102670.84;;;7.73;71.66
40908;BME280;51055;59.436;24.778;2022-09-09T00:35:03;102674.31;;;7.75;71.48
40908;BME280;51055;59.436;24.778;2022-09-09T00:37:31;102675.91;;;7.79;71.37
40908;BME280;51055;59.436;24.778;2022-09-09T00:40:03;102670.50;;;7.82;71.65
40908;BME280;51055;59.436;24.778;2022-09-09T00:42:41;102675.88;;;7.81;71.33
40908;BME280;51055;59.436;24.778;2022-09-09T00:48:40;102672.22;;;7.60;71.36
40908;BME280;51055;59.436;24.778;2022-09-09T00:57:32;102673.31;;;7.55;72.44
40908;BME280;51055;59.436;24.778;2022-09-09T00:59:51;102664.63;;;7.51;72.50
40908;BME280;51055;59.436;24.778;2022-09-09T01:02:35;102668.13;;;7.52;72.28
40908;BME280;51055;59.436;24.778;2022-09-09T01:05:23;102668.06;;;7.53;72.40
40908;BME280;51055;59.436;24.778;2022-09-09T01:07:54;102663.13;;;7.44;72.43
40908;BME280;51055;59.436;24.778;2022-09-09T01:10:50;102670.16;;;7.44;72.67
40908;BME280;51055;59.436;24.778;2022-09-09T01:13:24;102658.59;;;7.48;72.64
40908;BME280;51055;59.436;24.778;2022-09-09T01:15:53;102663.09;;;7.46;72.36
40908;BME280;51055;59.436;24.778;2022-09-09T01:18:32;102660.47;;;7.44;73.02
40908;BME280;51055;59.436;24.778;2022-09-09T01:21:18;102664.84;;;7.45;72.38
40908;BME280;51055;59.436;24.778;2022-09-09T01:24:04;102657.94;;;7.41;72.63
40908;BME280;51055;59.436;24.778;2022-09-09T01:26:37;102672.06;;;7.40;72.00
40908;BME280;51055;59.436;24.778;2022-09-09T01:29:09;102672.50;;;7.28;72.76
40908;BME280;51055;59.436;24.778;2022-09-09T01:34:15;102679.75;;;7.21;73.15
40908;BME280;51055;59.436;24.778;2022-09-09T01:39:15;102673.72;;;7.18;73.78
40908;BME280;51055;59.436;24.778;2022-09-09T01:41:43;102677.91;;;7.23;73.38
40908;BME280;51055;59.436;24.778;2022-09-09T01:44:11;102665.06;;;7.14;72.89
40908;BME280;51055;59.436;24.778;2022-09-09T01:46:38;102674.81;;;7.12;73.20
40908;BME280;51055;59.436;24.778;2022-09-09T01:49:07;102673.94;;;7.12;73.22
40908;BME280;51055;59.436;24.778;2022-09-09T01:51:37;102668.88;;;7.06;74.09
40908;BME280;51055;59.436;24.778;2022-09-09T01:54:06;102671.91;;;6.94;73.55
40908;BME280;51055;59.436;24.778;2022-09-09T01:56:51;102674.16;;;7.06;73.72
40908;BME280;51055;59.436;24.778;2022-09-09T01:59:32;102683.84;;;7.05;73.17
40908;BME280;51055;59.436;24.778;2022-09-09T02:07:47;102673.03;;;6.87;73.82
40908;BME280;51055;59.436;24.778;2022-09-09T02:10:53;102669.56;;;6.85;74.03
40908;BME280;51055;59.436;24.778;2022-09-09T02:13:22;102672.38;;;6.80;73.88
40908;BME280;51055;59.436;24.778;2022-09-09T02:18:59;102668.25;;;6.71;75.00
40908;BME280;51055;59.436;24.778;2022-09-09T02:21:31;102671.72;;;6.73;74.46
40908;BME280;51055;59.436;24.778;2022-09-09T02:24:05;102675.16;;;6.75;75.09
40908;BME280;51055;59.436;24.778;2022-09-09T02:26:40;102668.47;;;6.65;75.75
40908;BME280;51055;59.436;24.778;2022-09-09T02:29:18;102667.25;;;6.75;75.28
40908;BME280;51055;59.436;24.778;2022-09-09T02:31:48;102665.38;;;6.79;74.82
40908;BME280;51055;59.436;24.778;2022-09-09T02:34:19;102662.03;;;6.74;74.79
40908;BME280;51055;59.436;24.778;2022-09-09T02:36:48;102663.75;;;6.75;74.16
40908;BME280;51055;59.436;24.778;2022-09-09T02:39:16;102662.88;;;6.74;74.83
40908;BME280;51055;59.436;24.778;2022-09-09T02:41:44;102655.78;;;6.76;74.95
40908;BME280;51055;59.436;24.778;2022-09-09T02:44:16;102653.84;;;6.81;74.74
40908;BME280;51055;59.436;24.778;2022-09-09T02:52:07;102653.06;;;6.79;74.43
40908;BME280;51055;59.436;24.778;2022-09-09T02:54:37;102656.66;;;6.77;74.62
40908;BME280;51055;59.436;24.778;2022-09-09T02:57:21;102661.06;;;6.76;74.88
40908;BME280;51055;59.436;24.778;2022-09-09T02:59:50;102661.06;;;6.76;74.04
40908;BME280;51055;59.436;24.778;2022-09-09T03:02:19;102655.50;;;6.86;74.49
40908;BME280;51055;59.436;24.778;2022-09-09T03:04:46;102655.91;;;6.73;73.75
40908;BME280;51055;59.436;24.778;2022-09-09T03:07:19;102660.84;;;6.56;74.08
40908;BME280;51055;59.436;24.778;2022-09-09T03:09:46;102658.00;;;6.62;74.29
40908;BME280;51055;59.436;24.778;2022-09-09T03:12:14;102658.47;;;6.75;74.13
40908;BME280;51055;59.436;24.778;2022-09-09T03:14:42;102658.69;;;6.69;73.97
40908;BME280;51055;59.436;24.778;2022-09-09T03:17:10;102657.91;;;6.65;74.12
40908;BME280;51055;59.436;24.778;2022-09-09T03:19:38;102664.72;;;6.72;73.29
40908;BME280;51055;59.436;24.778;2022-09-09T03:22:09;102655.25;;;6.67;74.32
40908;BME280;51055;59.436;24.778;2022-09-09T03:24:37;102654.38;;;6.66;73.85
40908;BME280;51055;59.436;24.778;2022-09-09T03:27:04;102654.19;;;6.71;73.06
40908;BME280;51055;59.436;24.778;2022-09-09T03:29:32;102654.38;;;6.66;73.35
40908;BME280;51055;59.436;24.778;2022-09-09T03:32:00;102653.81;;;6.57;73.20
40908;BME280;51055;59.436;24.778;2022-09-09T03:34:27;102659.28;;;6.51;73.19
40908;BME280;51055;59.436;24.778;2022-09-09T03:36:55;102652.41;;;6.45;73.78
40908;BME280;51055;59.436;24.778;2022-09-09T03:39:23;102658.34;;;6.52;74.11
40908;BME280;51055;59.436;24.778;2022-09-09T03:41:51;102648.00;;;6.46;73.84
40908;BME280;51055;59.436;24.778;2022-09-09T03:44:18;102652.16;;;6.53;75.10
40908;BME280;51055;59.436;24.778;2022-09-09T03:46:45;102653.84;;;6.55;74.55
40908;BME280;51055;59.436;24.778;2022-09-09T03:49:13;102647.56;;;6.59;74.76
40908;BME280;51055;59.436;24.778;2022-09-09T03:51:41;102656.94;;;6.68;74.55
40908;BME280;51055;59.436;24.778;2022-09-09T03:54:09;102657.66;;;6.73;74.76
40908;BME280;51055;59.436;24.778;2022-09-09T03:56:37;102651.38;;;6.77;74.97
40908;BME280;51055;59.436;24.778;2022-09-09T03:59:05;102653.16;;;6.76;74.64
40908;BME280;51055;59.436;24.778;2022-09-09T04:01:33;102648.94;;;6.71;74.69
40908;BME280;51055;59.436;24.778;2022-09-09T04:04:01;102653.47;;;6.67;74.89
40908;BME280;51055;59.436;24.778;2022-09-09T04:06:29;102650.97;;;6.63;75.77
40908;BME280;51055;59.436;24.778;2022-09-09T04:08:57;102645.34;;;6.73;75.67
40908;BME280;51055;59.436;24.778;2022-09-09T04:11:25;102648.75;;;6.77;74.98
40908;BME280;51055;59.436;24.778;2022-09-09T04:13:52;102647.13;;;6.73;75.22
40908;BME280;51055;59.436;24.778;2022-09-09T04:16:20;102651.50;;;6.74;75.95
40908;BME280;51055;59.436;24.778;2022-09-09T04:18:48;102648.94;;;6.71;75.78
40908;BME280;51055;59.436;24.778;2022-09-09T04:21:16;102649.00;;;6.69;75.94
40908;BME280;51055;59.436;24.778;2022-09-09T04:23:45;102641.09;;;6.69;76.12
40908;BME280;51055;59.436;24.778;2022-09-09T04:26:12;102643.50;;;6.75;76.49
40908;BME280;51055;59.436;24.778;2022-09-09T04:28:40;102642.34;;;6.84;76.43
40908;BME280;51055;59.436;24.778;2022-09-09T04:31:19;102632.63;;;6.86;76.06
40908;BME280;51055;59.436;24.778;2022-09-09T04:33:47;102630.75;;;6.90;75.98
40908;BME280;51055;59.436;24.778;2022-09-09T04:36:15;102631.50;;;6.93;75.89
40908;BME280;51055;59.436;24.778;2022-09-09T04:38:43;102637.72;;;6.91;75.58
40908;BME280;51055;59.436;24.778;2022-09-09T04:41:12;102636.69;;;6.95;76.27
40908;BME280;51055;59.436;24.778;2022-09-09T04:43:40;102641.78;;;7.01;75.94
40908;BME280;51055;59.436;24.778;2022-09-09T04:46:07;102641.78;;;7.01;75.84
40908;BME280;51055;59.436;24.778;2022-09-09T04:48:35;102642.69;;;7.00;76.08
40908;BME280;51055;59.436;24.778;2022-09-09T04:51:05;102639.13;;;7.01;76.05
40908;BME280;51055;59.436;24.778;2022-09-09T04:53:33;102640.81;;;7.03;75.66
40908;BME280;51055;59.436;24.778;2022-09-09T04:56:13;102652.59;;;6.93;75.23
40908;BME280;51055;59.436;24.778;2022-09-09T04:58:41;102642.09;;;6.92;75.44
40908;BME280;51055;59.436;24.778;2022-09-09T05:01:13;102644.84;;;6.89;75.84
40908;BME280;51055;59.436;24.778;2022-09-09T05:03:41;102644.59;;;6.96;76.12
40908;BME280;51055;59.436;24.778;2022-09-09T05:06:11;102648.16;;;6.94;76.08
40908;BME280;51055;59.436;24.778;2022-09-09T05:08:40;102652.81;;;6.87;75.86
40908;BME280;51055;59.436;24.778;2022-09-09T05:13:43;102653.09;;;7.04;75.82
40908;BME280;51055;59.436;24.778;2022-09-09T05:16:12;102660.59;;;7.16;75.37
40908;BME280;51055;59.436;24.778;2022-09-09T05:18:41;102652.84;;;7.12;74.88
40908;BME280;51055;59.436;24.778;2022-09-09T05:21:10;102659.00;;;7.11;75.40
40908;BME280;51055;59.436;24.778;2022-09-09T05:23:39;102659.41;;;7.25;74.99
40908;BME280;51055;59.436;24.778;2022-09-09T05:26:11;102658.22;;;7.33;74.65
40908;BME280;51055;59.436;24.778;2022-09-09T05:28:44;102652.53;;;7.46;73.91
40908;BME280;51055;59.436;24.778;2022-09-09T05:31:13;102656.63;;;7.53;74.09
40908;BME280;51055;59.436;24.778;2022-09-09T05:33:43;102664.88;;;7.68;73.86
40908;BME280;51055;59.436;24.778;2022-09-09T05:36:18;102664.66;;;7.74;73.17
40908;BME280;51055;59.436;24.778;2022-09-09T05:38:47;102668.81;;;7.81;73.24
40908;BME280;51055;59.436;24.778;2022-09-09T05:41:16;102666.38;;;7.99;72.52
40908;BME280;51055;59.436;24.778;2022-09-09T05:43:44;102669.13;;;8.19;72.16
40908;BME280;51055;59.436;24.778;2022-09-09T05:48:43;102663.16;;;8.59;71.12
40908;BME280;51055;59.436;24.778;2022-09-09T05:51:15;102662.22;;;8.81;70.46
40908;BME280;51055;59.436;24.778;2022-09-09T05:53:45;102667.69;;;8.99;69.83
40908;BME280;51055;59.436;24.778;2022-09-09T05:56:15;102660.72;;;9.16;69.52
40908;BME280;51055;59.436;24.778;2022-09-09T05:58:43;102656.13;;;9.41;68.91
40908;BME280;51055;59.436;24.778;2022-09-09T06:01:14;102667.34;;;9.67;68.00
40908;BME280;51055;59.436;24.778;2022-09-09T06:03:44;102660.84;;;9.92;66.96
40908;BME280;51055;59.436;24.778;2022-09-09T06:06:14;102656.09;;;10.19;65.78
40908;BME280;51055;59.436;24.778;2022-09-09T06:08:43;102656.22;;;10.35;64.59
40908;BME280;51055;59.436;24.778;2022-09-09T06:11:16;102662.34;;;10.54;64.04
40908;BME280;51055;59.436;24.778;2022-09-09T06:13:44;102656.00;;;10.75;63.21
40908;BME280;51055;59.436;24.778;2022-09-09T06:16:13;102659.13;;;10.83;62.01
40908;BME280;51055;59.436;24.778;2022-09-09T06:18:42;102665.34;;;11.01;61.39
40908;BME280;51055;59.436;24.778;2022-09-09T06:21:34;102660.25;;;10.96;61.39
40908;BME280;51055;59.436;24.778;2022-09-09T06:24:06;102658.63;;;11.11;60.56
40908;BME280;51055;59.436;24.778;2022-09-09T06:26:38;102669.94;;;11.32;59.85
40908;BME280;51055;59.436;24.778;2022-09-09T06:29:09;102667.94;;;11.52;59.80
40908;BME280;51055;59.436;24.778;2022-09-09T06:31:37;102668.25;;;11.64;59.07
40908;BME280;51055;59.436;24.778;2022-09-09T06:34:07;102670.66;;;11.85;58.97
40908;BME280;51055;59.436;24.778;2022-09-09T06:36:37;102669.56;;;12.05;58.64
40908;BME280;51055;59.436;24.778;2022-09-09T06:39:05;102671.53;;;12.17;58.08
40908;BME280;51055;59.436;24.778;2022-09-09T06:41:39;102673.72;;;12.42;57.12
40908;BME280;51055;59.436;24.778;2022-09-09T06:44:08;102667.34;;;12.60;56.85
40908;BME280;51055;59.436;24.778;2022-09-09T06:46:36;102668.56;;;13.00;55.76
40908;BME280;51055;59.436;24.778;2022-09-09T06:49:03;102666.84;;;13.15;54.53
40908;BME280;51055;59.436;24.778;2022-09-09T06:51:34;102650.66;;;13.90;52.39
40908;BME280;51055;59.436;24.778;2022-09-09T06:54:03;102650.63;;;14.59;50.41
40908;BME280;51055;59.436;24.778;2022-09-09T06:59:00;102645.94;;;16.76;45.12
40908;BME280;51055;59.436;24.778;2022-09-09T07:01:33;102651.00;;;17.72;42.61
40908;BME280;51055;59.436;24.778;2022-09-09T07:04:02;102643.94;;;17.82;41.30
40908;BME280;51055;59.436;24.778;2022-09-09T07:06:36;102648.44;;;17.82;41.22
40908;BME280;51055;59.436;24.778;2022-09-09T07:09:07;102640.63;;;18.12;40.63
40908;BME280;51055;59.436;24.778;2022-09-09T07:11:44;102649.59;;;18.44;40.00
40908;BME280;51055;59.436;24.778;2022-09-09T07:14:12;102646.97;;;17.89;40.38
40908;BME280;51055;59.436;24.778;2022-09-09T07:16:44;102648.28;;;17.61;41.25
40908;BME280;51055;59.436;24.778;2022-09-09T07:19:12;102648.38;;;17.37;41.55
40908;BME280;51055;59.436;24.778;2022-09-09T07:21:42;102648.03;;;17.53;41.09
40908;BME280;51055;59.436;24.778;2022-09-09T07:24:10;102654.03;;;17.79;40.31
40908;BME280;51055;59.436;24.778;2022-09-09T07:26:40;102655.25;;;17.75;40.02
40908;BME280;51055;59.436;24.778;2022-09-09T07:29:08;102651.09;;;18.04;39.13
40908;BME280;51055;59.436;24.778;2022-09-09T07:31:38;102662.31;;;17.64;39.84
40908;BME280;51055;59.436;24.778;2022-09-09T07:34:07;102664.66;;;17.69;40.63
40908;BME280;51055;59.436;24.778;2022-09-09T07:36:37;102664.28;;;17.74;40.04
40908;BME280;51055;59.436;24.778;2022-09-09T07:39:07;102666.22;;;18.16;39.37
40908;BME280;51055;59.436;24.778;2022-09-09T07:41:42;102656.69;;;18.45;38.40
40908;BME280;51055;59.436;24.778;2022-09-09T07:44:16;102665.38;;;17.60;38.99
40908;BME280;51055;59.436;24.778;2022-09-09T07:46:44;102658.69;;;17.65;39.09
40908;BME280;51055;59.436;24.778;2022-09-09T07:49:13;102652.06;;;18.14;37.76
40908;BME280;51055;59.436;24.778;2022-09-09T07:51:44;102661.56;;;18.51;38.12
40908;BME280;51055;59.436;24.778;2022-09-09T07:54:14;102652.06;;;18.25;38.02
40908;BME280;51055;59.436;24.778;2022-09-09T07:56:42;102656.28;;;18.93;36.97
40908;BME280;51055;59.436;24.778;2022-09-09T07:59:10;102654.44;;;18.93;37.16
40908;BME280;51055;59.436;24.778;2022-09-09T08:01:46;102654.53;;;19.03;36.72
40908;BME280;51055;59.436;24.778;2022-09-09T08:04:19;102657.19;;;18.82;35.33
40908;BME280;51055;59.436;24.778;2022-09-09T08:06:58;102661.28;;;18.97;35.76
40908;BME280;51055;59.436;24.778;2022-09-09T08:09:27;102660.31;;;18.55;36.53
40908;BME280;51055;59.436;24.778;2022-09-09T08:11:57;102659.94;;;18.60;35.44
40908;BME280;51055;59.436;24.778;2022-09-09T08:14:25;102659.94;;;18.60;35.99
40908;BME280;51055;59.436;24.778;2022-09-09T08:16:53;102665.16;;;18.72;35.16
40908;BME280;51055;59.436;24.778;2022-09-09T08:19:21;102659.31;;;18.67;35.14
40908;BME280;51055;59.436;24.778;2022-09-09T08:21:50;102656.75;;;18.66;36.06
40908;BME280;51055;59.436;24.778;2022-09-09T08:24:18;102654.25;;;18.20;36.10
40908;BME280;51055;59.436;24.778;2022-09-09T08:26:48;102653.41;;;17.64;37.33
40908;BME280;51055;59.436;24.778;2022-09-09T08:29:18;102653.59;;;16.93;37.57
40908;BME280;51055;59.436;24.778;2022-09-09T08:31:51;102669.44;;;16.72;38.86
40908;BME280;51055;59.436;24.778;2022-09-09T08:34:22;102664.06;;;16.48;38.27
40908;BME280;51055;59.436;24.778;2022-09-09T08:36:51;102658.75;;;16.23;38.67
40908;BME280;51055;59.436;24.778;2022-09-09T08:39:20;102665.34;;;15.94;39.38
40908;BME280;51055;59.436;24.778;2022-09-09T08:47:50;102661.59;;;15.33;41.24
40908;BME280;51055;59.436;24.778;2022-09-09T08:50:26;102658.75;;;15.49;41.42
40908;BME280;51055;59.436;24.778;2022-09-09T08:53:01;102667.47;;;15.38;42.40
40908;BME280;51055;59.436;24.778;2022-09-09T08:55:51;102661.09;;;15.41;42.57
40908;BME280;51055;59.436;24.778;2022-09-09T08:58:32;102663.63;;;15.17;42.85
40908;BME280;51055;59.436;24.778;2022-09-09T09:11:57;102665.59;;;14.62;42.62
40908;BME280;51055;59.436;24.778;2022-09-09T09:14:30;102662.31;;;14.71;43.11
40908;BME280;51055;59.436;24.778;2022-09-09T09:17:06;102660.19;;;14.76;43.84
40908;BME280;51055;59.436;24.778;2022-09-09T09:19:35;102659.56;;;14.72;43.59
40908;BME280;51055;59.436;24.778;2022-09-09T09:22:22;102663.06;;;14.73;43.50
40908;BME280;51055;59.436;24.778;2022-09-09T09:27:43;102661.53;;;14.56;42.21
40908;BME280;51055;59.436;24.778;2022-09-09T09:30:18;102657.13;;;14.55;42.47
40908;BME280;51055;59.436;24.778;2022-09-09T09:33:02;102662.66;;;14.52;43.10
40908;BME280;51055;59.436;24.778;2022-09-09T09:35:30;102654.19;;;14.45;42.71
40908;BME280;51055;59.436;24.778;2022-09-09T09:37:58;102651.88;;;14.53;42.76
40908;BME280;51055;59.436;24.778;2022-09-09T09:40:50;102656.34;;;14.53;41.99
40908;BME280;51055;59.436;24.778;2022-09-09T09:43:20;102655.53;;;14.52;42.87
40908;BME280;51055;59.436;24.778;2022-09-09T09:45:49;102656.19;;;14.56;42.49
40908;BME280;51055;59.436;24.778;2022-09-09T09:48:36;102654.03;;;14.61;42.28
40908;BME280;51055;59.436;24.778;2022-09-09T09:51:12;102644.44;;;14.58;42.27
40908;BME280;51055;59.436;24.778;2022-09-09T09:53:43;102649.56;;;14.62;42.81
40908;BME280;51055;59.436;24.778;2022-09-09T09:56:13;102646.03;;;14.61;42.85
40908;BME280;51055;59.436;24.778;2022-09-09T10:01:26;102630.00;;;14.61;42.38
40908;BME280;51055;59.436;24.778;2022-09-09T10:04:22;102632.22;;;14.54;42.24
40908;BME280;51055;59.436;24.778;2022-09-09T10:06:51;102624.31;;;14.53;42.84
40908;BME280;51055;59.436;24.778;2022-09-09T10:20:42;102633.25;;;14.39;43.34
40908;BME280;51055;59.436;24.778;2022-09-09T10:31:39;102625.72;;;14.58;42.98
40908;BME280;51055;59.436;24.778;2022-09-09T10:34:16;102620.47;;;14.57;43.41
40908;BME280;51055;59.436;24.778;2022-09-09T10:36:49;102620.06;;;14.63;43.61
40908;BME280;51055;59.436;24.778;2022-09-09T10:39:32;102615.28;;;14.68;43.26
40908;BME280;51055;59.436;24.778;2022-09-09T10:42:09;102620.63;;;14.68;42.48
40908;BME280;51055;59.436;24.778;2022-09-09T10:44:42;102611.03;;;14.66;42.40
40908;BME280;51055;59.436;24.778;2022-09-09T10:50:18;102611.84;;;14.66;42.25
40908;BME280;51055;59.436;24.778;2022-09-09T10:55:59;102613.69;;;14.66;42.44
40908;BME280;51055;59.436;24.778;2022-09-09T10:58:35;102608.72;;;14.59;41.87
40908;BME280;51055;59.436;24.778;2022-09-09T11:04:35;102607.56;;;14.64;41.38
40908;BME280;51055;59.436;24.778;2022-09-09T11:07:09;102608.34;;;14.66;41.03
40908;BME280;51055;59.436;24.778;2022-09-09T11:09:49;102607.50;;;14.65;41.46
40908;BME280;51055;59.436;24.778;2022-09-09T11:12:19;102604.69;;;14.67;41.20
40908;BME280;51055;59.436;24.778;2022-09-09T11:15:09;102601.81;;;14.70;41.72
40908;BME280;51055;59.436;24.778;2022-09-09T11:17:49;102603.84;;;14.66;41.00
40908;BME280;51055;59.436;24.778;2022-09-09T11:20:18;102602.75;;;14.56;40.82
40908;BME280;51055;59.436;24.778;2022-09-09T11:23:05;102603.38;;;14.59;41.60
40908;BME280;51055;59.436;24.778;2022-09-09T11:26:04;102604.03;;;14.63;41.47
40908;BME280;51055;59.436;24.778;2022-09-09T11:42:26;102577.91;;;14.68;41.67
40908;BME280;51055;59.436;24.778;2022-09-09T11:44:53;102574.38;;;14.68;41.12
40908;BME280;51055;59.436;24.778;2022-09-09T11:47:27;102574.47;;;14.66;40.38
40908;BME280;51055;59.436;24.778;2022-09-09T11:52:46;102567.31;;;14.67;40.51
40908;BME280;51055;59.436;24.778;2022-09-09T11:55:34;102567.22;;;14.68;41.10
40908;BME280;51055;59.436;24.778;2022-09-09T11:58:04;102563.03;;;14.64;41.42
40908;BME280;51055;59.436;24.778;2022-09-09T12:00:38;102561.31;;;14.63;41.01
40908;BME280;51055;59.436;24.778;2022-09-09T12:03:52;102567.09;;;14.70;40.63
40908;BME280;51055;59.436;24.778;2022-09-09T12:06:41;102551.19;;;14.68;40.19
40908;BME280;51055;59.436;24.778;2022-09-09T12:09:24;102556.75;;;14.65;40.65
40908;BME280;51055;59.436;24.778;2022-09-09T12:17:19;102551.06;;;14.70;39.98
40908;BME280;51055;59.436;24.778;2022-09-09T12:28:25;102547.44;;;14.71;39.83
40908;BME280;51055;59.436;24.778;2022-09-09T12:31:02;102535.03;;;14.70;40.27
40908;BME280;51055;59.436;24.778;2022-09-09T12:33:35;102529.41;;;14.74;40.48
40908;BME280;51055;59.436;24.778;2022-09-09T12:36:05;102533.38;;;14.81;40.46
40908;BME280;51055;59.436;24.778;2022-09-09T12:38:40;102525.56;;;14.78;40.69
40908;BME280;51055;59.436;24.778;2022-09-09T12:41:22;102516.69;;;14.78;40.90
40908;BME280;51055;59.436;24.778;2022-09-09T12:43:51;102519.25;;;14.79;40.80
40908;BME280;51055;59.436;24.778;2022-09-09T12:46:31;102511.00;;;14.82;40.67
40908;BME280;51055;59.436;24.778;2022-09-09T12:49:01;102506.44;;;14.84;40.00
40908;BME280;51055;59.436;24.778;2022-09-09T12:51:31;102505.66;;;14.82;39.34
40908;BME280;51055;59.436;24.778;2022-09-09T12:54:00;102503.56;;;14.87;39.27
40908;BME280;51055;59.436;24.778;2022-09-09T12:56:32;102500.25;;;14.84;39.56
40908;BME280;51055;59.436;24.778;2022-09-09T12:59:00;102502.19;;;14.82;39.64
40908;BME280;51055;59.436;24.778;2022-09-09T13:01:30;102503.34;;;14.78;39.85
40908;BME280;51055;59.436;24.778;2022-09-09T13:04:00;102498.28;;;14.73;40.38
40908;BME280;51055;59.436;24.778;2022-09-09T13:06:29;102502.38;;;14.79;39.99
40908;BME280;51055;59.436;24.778;2022-09-09T13:09:01;102498.09;;;14.76;39.95
40908;BME280;51055;59.436;24.778;2022-09-09T13:11:44;102499.28;;;14.85;40.09
40908;BME280;51055;59.436;24.778;2022-09-09T13:14:19;102503.78;;;14.84;40.02
40908;BME280;51055;59.436;24.778;2022-09-09T13:16:57;102493.16;;;14.83;40.01
40908;BME280;51055;59.436;24.778;2022-09-09T13:19:26;102491.56;;;14.80;39.92
40908;BME280;51055;59.436;24.778;2022-09-09T13:21:56;102488.81;;;14.82;39.92
40908;BME280;51055;59.436;24.778;2022-09-09T13:24:29;102485.16;;;14.83;39.93
40908;BME280;51055;59.436;24.778;2022-09-09T13:26:59;102487.53;;;14.87;39.66
40908;BME280;51055;59.436;24.778;2022-09-09T13:29:30;102482.59;;;14.94;38.84
40908;BME280;51055;59.436;24.778;2022-09-09T13:32:16;102476.50;;;14.79;39.00
40908;BME280;51055;59.436;24.778;2022-09-09T13:34:56;102477.34;;;14.80;38.84
40908;BME280;51055;59.436;24.778;2022-09-09T13:37:36;102475.56;;;14.80;39.58
40908;BME280;51055;59.436;24.778;2022-09-09T13:40:05;102473.53;;;14.84;39.80
40908;BME280;51055;59.436;24.778;2022-09-09T13:42:40;102468.81;;;14.75;39.70
40908;BME280;51055;59.436;24.778;2022-09-09T13:45:18;102459.31;;;14.71;39.87
40908;BME280;51055;59.436;24.778;2022-09-09T13:47:48;102456.75;;;14.82;39.83
40908;BME280;51055;59.436;24.778;2022-09-09T13:50:24;102462.75;;;14.85;39.51
40908;BME280;51055;59.436;24.778;2022-09-09T13:52:54;102452.16;;;14.84;39.29
40908;BME280;51055;59.436;24.778;2022-09-09T13:55:26;102454.81;;;14.84;39.46
40908;BME280;51055;59.436;24.778;2022-09-09T13:57:55;102447.97;;;14.80;39.60
40908;BME280;51055;59.436;24.778;2022-09-09T14:00:23;102451.72;;;14.77;39.67
40908;BME280;51055;59.436;24.778;2022-09-09T14:02:51;102445.72;;;14.86;39.46
40908;BME280;51055;59.436;24.778;2022-09-09T14:05:19;102437.06;;;14.83;39.27
40908;BME280;51055;59.436;24.778;2022-09-09T14:07:47;102430.34;;;14.77;39.51
40908;BME280;51055;59.436;24.778;2022-09-09T14:10:19;102430.34;;;14.77;39.71
40908;BME280;51055;59.436;24.778;2022-09-09T14:12:48;102428.97;;;14.84;39.93
40908;BME280;51055;59.436;24.778;2022-09-09T14:15:15;102422.25;;;14.79;39.85
40908;BME280;51055;59.436;24.778;2022-09-09T14:17:43;102413.47;;;14.77;39.71
40908;BME280;51055;59.436;24.778;2022-09-09T14:20:11;102418.06;;;14.87;39.28
40908;BME280;51055;59.436;24.778;2022-09-09T14:22:39;102419.56;;;14.91;39.29
40908;BME280;51055;59.436;24.778;2022-09-09T14:25:07;102408.31;;;14.86;39.38
40908;BME280;51055;59.436;24.778;2022-09-09T14:27:35;102410.47;;;14.81;39.75
40908;BME280;51055;59.436;24.778;2022-09-09T14:30:03;102412.28;;;14.81;39.82
40908;BME280;51055;59.436;24.778;2022-09-09T14:32:32;102410.69;;;14.78;39.75
40908;BME280;51055;59.436;24.778;2022-09-09T14:35:00;102408.03;;;14.78;39.75
40908;BME280;51055;59.436;24.778;2022-09-09T14:37:28;102408.25;;;14.75;39.85
40908;BME280;51055;59.436;24.778;2022-09-09T14:39:58;102400.00;;;14.78;40.14
40908;BME280;51055;59.436;24.778;2022-09-09T14:42:26;102391.16;;;14.78;40.09
40908;BME280;51055;59.436;24.778;2022-09-09T14:44:54;102392.09;;;14.77;40.13
40908;BME280;51055;59.436;24.778;2022-09-09T14:47:21;102394.91;;;14.75;40.23
40908;BME280;51055;59.436;24.778;2022-09-09T14:49:49;102396.13;;;14.82;40.01
40908;BME280;51055;59.436;24.778;2022-09-09T14:52:17;102398.19;;;14.79;40.01
40908;BME280;51055;59.436;24.778;2022-09-09T14:54:44;102378.88;;;14.75;39.85
40908;BME280;51055;59.436;24.778;2022-09-09T14:57:12;102379.91;;;14.73;40.01
40908;BME280;51055;59.436;24.778;2022-09-09T14:59:40;102380.13;;;14.70;40.28
40908;BME280;51055;59.436;24.778;2022-09-09T15:02:08;102388.91;;;14.72;39.95
40908;BME280;51055;59.436;24.778;2022-09-09T15:04:36;102385.91;;;14.76;40.08
40908;BME280;51055;59.436;24.778;2022-09-09T15:07:03;102391.44;;;14.73;40.15
40908;BME280;51055;59.436;24.778;2022-09-09T15:09:31;102388.13;;;14.70;39.96
40908;BME280;51055;59.436;24.778;2022-09-09T15:11:59;102380.25;;;14.68;40.15
40908;BME280;51055;59.436;24.778;2022-09-09T15:14:27;102385.47;;;14.70;40.44
40908;BME280;51055;59.436;24.778;2022-09-09T15:16:55;102377.03;;;14.63;40.69
40908;BME280;51055;59.436;24.778;2022-09-09T15:19:23;102387.19;;;14.71;40.54